Time;durP1;ratioP1;P1;durP2;ratioP2;P2;SDS_P1;SDS_P2;PMS_P1;PMS_P2;Temp;Humidity;BMP_temperature;BMP_pressure;BME280_temperature;BME280_humidity;BME280_pressure;Samples;Min_cycle;Max_cycle;Signal;HPM_P1;HPM_P2
2022/10/26 00:01:20;;;;;;;0.53;0.23;;;27.60;99.90;;;;;;5073926;28;20269;-73
2022/10/26 00:03:48;;;;;;;0.40;0.20;;;28.10;99.90;;;;;;5073904;28;20727;-73
2022/10/26 00:06:18;;;;;;;0.47;0.33;;;28.90;99.90;;;;;;5074287;28;20579;-74
2022/10/26 00:08:46;;;;;;;0.20;0.20;;;28.30;99.90;;;;;;5089957;28;20183;-74
2022/10/26 00:11:14;;;;;;;0.33;0.20;;;28.00;99.90;;;;;;5061104;28;20644;-73
2022/10/26 00:13:43;;;;;;;0.10;0.10;;;27.70;99.90;;;;;;5088508;28;20517;-73
2022/10/26 00:16:23;;;;;;;0.30;0.20;;;27.30;99.90;;;;;;5081579;28;20180;-74
2022/10/26 00:18:51;;;;;;;0.10;0.10;;;27.20;99.90;;;;;;5085101;28;20190;-75
2022/10/26 00:21:19;;;;;;;0.10;0.10;;;27.70;99.90;;;;;;5093986;28;20262;-73
2022/10/26 00:23:47;;;;;;;0.67;0.20;;;27.80;99.90;;;;;;5083119;28;20226;-75
2022/10/26 00:26:14;;;;;;;2.00;0.20;;;27.70;99.90;;;;;;5090910;28;20182;-74
2022/10/26 00:28:42;;;;;;;0.20;0.20;;;27.70;99.90;;;;;;5090107;28;20184;-73
2022/10/26 00:31:14;;;;;;;0.50;0.23;;;28.30;99.90;;;;;;5073680;28;20172;-75
2022/10/26 00:33:42;;;;;;;0.77;0.30;;;29.30;99.90;;;;;;5092989;28;20665;-73
2022/10/26 00:36:12;;;;;;;1.57;0.20;;;29.80;99.90;;;;;;5093478;28;20179;-74
2022/10/26 00:38:44;;;;;;;0.20;0.20;;;30.00;99.90;;;;;;5077734;28;20283;-75
2022/10/26 00:41:22;;;;;;;0.37;0.30;;;30.10;99.90;;;;;;5073444;28;20184;-74
2022/10/26 00:43:50;;;;;;;2.03;0.10;;;29.60;99.90;;;;;;5087285;28;20218;-74
2022/10/26 00:46:26;;;;;;;0.10;0.10;;;30.00;99.90;;;;;;5084045;28;20199;-76
2022/10/26 00:49:03;;;;;;;0.17;0.17;;;29.60;99.90;;;;;;5089499;28;20842;-75
2022/10/26 00:51:48;;;;;;;1.97;0.13;;;29.80;99.90;;;;;;5074336;28;20179;-75
2022/10/26 00:54:20;;;;;;;0.10;0.10;;;29.80;99.90;;;;;;5074217;28;20183;-75
2022/10/26 00:56:51;;;;;;;0.20;0.20;;;29.90;99.90;;;;;;5073323;28;20610;-72
2022/10/26 00:59:21;;;;;;;1.17;0.47;;;30.10;99.90;;;;;;5077362;28;20187;-75
2022/10/26 01:01:50;;;;;;;3.03;0.30;;;30.20;99.90;;;;;;5092802;28;20283;-76
2022/10/26 01:04:18;;;;;;;0.60;0.20;;;30.10;99.90;;;;;;5092965;28;20191;-73
2022/10/26 01:06:47;;;;;;;0.43;0.30;;;30.20;99.90;;;;;;5093079;28;20183;-72
2022/10/26 01:09:17;;;;;;;0.40;0.17;;;30.90;99.50;;;;;;5092232;28;20266;-74
2022/10/26 01:11:45;;;;;;;1.13;0.20;;;31.00;95.50;;;;;;5088334;28;20188;-75
2022/10/26 01:14:16;;;;;;;0.30;0.13;;;31.30;94.60;;;;;;5062257;28;20190;-73
2022/10/26 01:16:47;;;;;;;0.10;0.10;;;30.70;95.30;;;;;;5091201;28;20190;-74
2022/10/26 01:19:17;;;;;;;0.30;0.20;;;30.70;90.40;;;;;;5090569;28;20187;-73
2022/10/26 01:22:06;;;;;;;2.00;0.20;;;31.00;91.40;;;;;;5082990;28;20187;-74
2022/10/26 01:24:58;;;;;;;0.37;0.20;;;30.90;81.70;;;;;;5073810;28;20188;-74
2022/10/26 01:27:40;;;;;;;1.80;0.27;;;31.20;76.10;;;;;;5081442;28;20246;-75
2022/10/26 01:30:29;;;;;;;0.20;0.20;;;30.80;78.90;;;;;;5072439;28;20237;-76
2022/10/26 01:33:30;;;;;;;0.60;0.20;;;30.60;76.80;;;;;;5054421;28;20199;-75
2022/10/26 01:36:10;;;;;;;0.10;0.10;;;30.10;77.60;;;;;;5054130;28;20178;-75
2022/10/26 01:38:41;;;;;;;1.33;0.40;;;30.60;84.50;;;;;;5083679;28;20222;-73
2022/10/26 01:41:28;;;;;;;0.30;0.20;;;30.60;88.10;;;;;;5072269;28;20195;-73
2022/10/26 01:44:04;;;;;;;0.10;0.10;;;31.00;87.70;;;;;;5082129;28;20565;-73
2022/10/26 01:46:37;;;;;;;0.60;0.20;;;31.00;85.50;;;;;;5092039;28;20186;-73
2022/10/26 01:49:11;;;;;;;2.43;0.30;;;31.00;85.20;;;;;;5092525;28;20202;-73
2022/10/26 01:51:41;;;;;;;1.03;0.30;;;30.60;80.80;;;;;;5092127;28;20576;-73
2022/10/26 01:54:09;;;;;;;0.10;0.10;;;30.00;87.30;;;;;;5072328;28;20191;-71
2022/10/26 01:56:40;;;;;;;0.20;0.10;;;29.20;89.90;;;;;;5075272;28;20331;-72
2022/10/26 01:59:07;;;;;;;0.20;0.20;;;28.80;92.30;;;;;;5072174;28;20641;-73
2022/10/26 02:01:50;;;;;;;2.03;0.37;;;28.70;93.20;;;;;;5071788;28;20219;-73
2022/10/26 02:04:38;;;;;;;0.20;0.20;;;28.70;95.30;;;;;;5081528;28;20309;-72
2022/10/26 02:07:19;;;;;;;1.23;0.20;;;28.50;96.60;;;;;;5086315;28;20184;-72
2022/10/26 02:10:31;;;;;;;0.30;0.30;;;29.00;96.80;;;;;;5072406;28;20258;-72
2022/10/26 02:13:18;;;;;;;0.50;0.20;;;29.20;93.90;;;;;;5071418;28;20268;-72
2022/10/26 02:15:53;;;;;;;0.50;0.40;;;29.70;92.00;;;;;;5071728;28;20995;-72
2022/10/26 02:18:47;;;;;;;0.20;0.20;;;30.00;91.70;;;;;;5053826;28;20668;-72
2022/10/26 02:21:23;;;;;;;1.17;0.27;;;30.90;80.60;;;;;;5087903;28;20191;-72
2022/10/26 02:23:55;;;;;;;0.33;0.33;;;30.90;75.30;;;;;;5071680;28;20250;-72
2022/10/26 02:26:26;;;;;;;1.80;0.20;;;30.90;70.20;;;;;;5062939;28;20608;-72
2022/10/26 02:28:58;;;;;;;0.30;0.20;;;30.10;70.90;;;;;;5091932;28;20210;-72
2022/10/26 02:31:26;;;;;;;1.20;0.37;;;29.60;72.70;;;;;;5091636;28;20229;-74
2022/10/26 02:33:57;;;;;;;0.20;0.17;;;29.20;79.60;;;;;;5071638;28;20184;-73
2022/10/26 02:36:32;;;;;;;0.50;0.20;;;28.80;84.60;;;;;;5071806;28;20225;-72
2022/10/26 02:39:02;;;;;;;0.57;0.37;;;28.70;84.70;;;;;;5075843;28;20190;-73
2022/10/26 02:41:32;;;;;;;0.57;0.20;;;29.20;88.20;;;;;;5073410;28;20187;-73
2022/10/26 02:44:24;;;;;;;0.20;0.20;;;29.50;85.70;;;;;;5071477;28;20204;-73
2022/10/26 02:46:54;;;;;;;0.20;0.20;;;29.60;79.40;;;;;;5077488;28;20522;-73
2022/10/26 02:49:22;;;;;;;0.30;0.30;;;29.40;86.60;;;;;;5095822;28;20256;-73
2022/10/26 02:52:01;;;;;;;0.60;0.30;;;29.30;87.00;;;;;;5094074;28;20559;-73
2022/10/26 02:54:49;;;;;;;0.20;0.20;;;28.80;83.80;;;;;;5094848;28;20244;-76
2022/10/26 02:57:38;;;;;;;1.27;0.30;;;28.60;88.80;;;;;;5095042;28;20269;-72
2022/10/26 03:00:17;;;;;;;0.53;0.30;;;28.30;90.40;;;;;;5095584;28;20179;-73
2022/10/26 03:02:51;;;;;;;0.40;0.30;;;28.30;90.40;;;;;;5082384;28;20296;-73
2022/10/26 03:05:31;;;;;;;0.87;0.20;;;28.30;87.90;;;;;;5075641;28;20266;-73
2022/10/26 03:07:59;;;;;;;1.03;0.20;;;28.50;91.10;;;;;;5081033;28;20175;-71
2022/10/26 03:10:27;;;;;;;0.43;0.30;;;28.80;89.50;;;;;;5101887;28;20544;-73
2022/10/26 03:12:55;;;;;;;0.20;0.20;;;29.00;84.50;;;;;;5097748;28;20238;-76
2022/10/26 03:15:23;;;;;;;0.20;0.20;;;28.90;84.60;;;;;;5075122;28;20498;-74
2022/10/26 03:17:50;;;;;;;0.47;0.20;;;28.90;83.80;;;;;;5057086;28;20187;-75
2022/10/26 03:20:18;;;;;;;0.20;0.20;;;28.90;86.90;;;;;;5075054;28;20526;-74
2022/10/26 03:22:48;;;;;;;0.50;0.20;;;29.60;87.70;;;;;;5090797;28;20218;-73
2022/10/26 03:25:16;;;;;;;0.30;0.20;;;29.90;83.30;;;;;;5095060;28;20172;-73
2022/10/26 03:27:44;;;;;;;0.20;0.20;;;30.00;75.50;;;;;;5094390;28;20175;-73
2022/10/26 03:30:12;;;;;;;0.30;0.30;;;29.70;72.90;;;;;;5095070;28;20171;-73
2022/10/26 03:32:39;;;;;;;3.03;0.27;;;29.20;76.60;;;;;;5094822;28;20659;-73
2022/10/26 03:35:07;;;;;;;0.20;0.20;;;29.20;85.40;;;;;;5094994;28;20194;-72
2022/10/26 03:37:35;;;;;;;3.70;0.40;;;29.50;85.00;;;;;;5094613;28;20267;-73
2022/10/26 03:40:03;;;;;;;1.97;0.37;;;29.30;82.40;;;;;;5094493;28;20263;-73
2022/10/26 03:42:37;;;;;;;0.60;0.20;;;29.40;85.40;;;;;;5094778;28;20207;-73
2022/10/26 03:45:06;;;;;;;0.87;0.30;;;29.00;80.10;;;;;;5094751;28;20179;-73
2022/10/26 03:47:34;;;;;;;0.43;0.23;;;29.10;82.80;;;;;;5094361;28;20182;-73
2022/10/26 03:50:01;;;;;;;1.03;0.30;;;29.00;82.00;;;;;;5090177;28;20183;-75
2022/10/26 03:52:29;;;;;;;0.70;0.50;;;29.20;80.50;;;;;;5074442;28;20195;-75
2022/10/26 03:54:57;;;;;;;0.10;0.10;;;29.20;81.10;;;;;;5079668;28;20195;-71
2022/10/26 03:57:25;;;;;;;0.20;0.20;;;29.50;72.40;;;;;;5090929;28;20494;-74
2022/10/26 03:59:53;;;;;;;0.20;0.20;;;29.80;71.70;;;;;;5094321;28;20541;-75
2022/10/26 04:02:21;;;;;;;0.23;0.20;;;29.90;68.10;;;;;;5094177;28;20703;-75
2022/10/26 04:04:48;;;;;;;1.50;0.20;;;29.90;71.50;;;;;;5084610;28;20179;-75
2022/10/26 04:07:16;;;;;;;0.60;0.30;;;29.90;69.40;;;;;;5085912;28;20651;-74
2022/10/26 04:09:44;;;;;;;0.20;0.20;;;30.10;71.90;;;;;;5073913;28;20194;-74
2022/10/26 04:12:12;;;;;;;0.20;0.20;;;30.20;70.80;;;;;;5074115;28;20515;-73
2022/10/26 04:14:39;;;;;;;0.20;0.20;;;30.30;72.00;;;;;;5074143;28;20191;-75
2022/10/26 04:17:07;;;;;;;0.20;0.20;;;30.30;70.10;;;;;;5077882;28;20262;-75
2022/10/26 04:19:35;;;;;;;1.33;0.50;;;30.40;73.70;;;;;;5093396;28;20601;-74
2022/10/26 04:22:03;;;;;;;0.83;0.37;;;30.40;67.80;;;;;;5090103;28;20195;-75
2022/10/26 04:24:31;;;;;;;0.67;0.30;;;30.30;65.20;;;;;;5073938;28;20183;-75
2022/10/26 04:26:59;;;;;;;0.30;0.30;;;30.40;69.40;;;;;;5075645;28;20250;-75
2022/10/26 04:29:26;;;;;;;1.50;0.37;;;30.30;73.00;;;;;;5082197;28;20184;-73
2022/10/26 04:31:54;;;;;;;0.80;0.30;;;30.30;69.10;;;;;;5085416;28;20573;-75
2022/10/26 04:34:22;;;;;;;0.60;0.20;;;30.40;63.90;;;;;;5093794;28;20179;-75
2022/10/26 04:36:49;;;;;;;0.30;0.30;;;30.90;66.80;;;;;;5092225;28;20255;-75
2022/10/26 04:39:17;;;;;;;1.70;0.30;;;31.00;63.30;;;;;;5093816;28;20315;-75
2022/10/26 04:41:45;;;;;;;1.00;0.43;;;31.00;60.10;;;;;;5083905;28;20202;-74
2022/10/26 04:44:13;;;;;;;0.83;0.50;;;30.80;65.20;;;;;;5073476;28;20712;-75
2022/10/26 04:46:40;;;;;;;1.90;0.40;;;31.00;64.20;;;;;;5055588;28;20557;-75
2022/10/26 04:49:08;;;;;;;0.33;0.30;;;31.20;63.80;;;;;;5074586;28;20187;-72
2022/10/26 04:51:36;;;;;;;0.30;0.30;;;31.20;61.90;;;;;;5073088;28;20176;-73
2022/10/26 04:54:04;;;;;;;0.20;0.20;;;31.10;62.50;;;;;;5073295;28;20718;-73
2022/10/26 04:56:32;;;;;;;0.50;0.33;;;31.00;57.70;;;;;;5084068;28;20181;-74
2022/10/26 04:59:00;;;;;;;0.20;0.20;;;31.00;57.30;;;;;;5092693;28;20182;-73
2022/10/26 05:01:29;;;;;;;0.30;0.30;;;31.10;62.90;;;;;;5093153;28;20616;-75
2022/10/26 05:03:57;;;;;;;0.50;0.50;;;31.00;57.70;;;;;;5093244;28;20214;-74
2022/10/26 05:06:25;;;;;;;1.13;0.30;;;30.80;55.00;;;;;;5093337;28;20175;-74
2022/10/26 05:08:53;;;;;;;0.20;0.20;;;30.90;53.90;;;;;;5083952;28;20190;-74
2022/10/26 05:11:20;;;;;;;0.57;0.33;;;30.90;55.20;;;;;;5072272;28;20207;-75
2022/10/26 05:13:48;;;;;;;1.27;0.40;;;30.90;57.20;;;;;;5072821;28;20187;-72
2022/10/26 05:16:16;;;;;;;0.30;0.30;;;31.00;55.80;;;;;;5079190;28;20215;-74
2022/10/26 05:18:47;;;;;;;0.73;0.20;;;31.00;54.70;;;;;;5085481;28;20234;-75
2022/10/26 05:21:18;;;;;;;0.30;0.30;;;30.90;51.80;;;;;;5054840;28;20610;-73
2022/10/26 05:23:52;;;;;;;0.67;0.40;;;30.70;54.30;;;;;;5072565;28;20306;-74
2022/10/26 05:26:23;;;;;;;0.50;0.30;;;30.40;55.20;;;;;;5072533;28;20207;-73
2022/10/26 05:28:52;;;;;;;1.47;0.30;;;30.50;56.80;;;;;;5080618;28;20210;-74
2022/10/26 05:31:20;;;;;;;0.87;0.40;;;30.90;57.80;;;;;;5092994;28;20644;-74
2022/10/26 05:33:51;;;;;;;1.07;0.30;;;30.70;53.30;;;;;;5092823;28;20262;-75
2022/10/26 05:36:20;;;;;;;0.40;0.30;;;30.50;55.30;;;;;;5074375;28;20185;-73
2022/10/26 05:38:48;;;;;;;0.93;0.30;;;30.60;56.20;;;;;;5084974;28;20182;-74
2022/10/26 05:41:15;;;;;;;0.33;0.30;;;30.70;55.30;;;;;;5072346;28;20621;-77
2022/10/26 05:43:46;;;;;;;0.30;0.20;;;30.80;55.00;;;;;;5073885;28;20218;-73
2022/10/26 05:46:14;;;;;;;1.60;0.50;;;30.70;54.20;;;;;;5092752;28;20542;-74
2022/10/26 05:48:41;;;;;;;0.43;0.30;;;30.00;54.90;;;;;;5067897;28;20622;-76
2022/10/26 05:51:11;;;;;;;0.40;0.30;;;29.70;58.60;;;;;;5072005;28;20267;-75
2022/10/26 05:53:39;;;;;;;1.70;0.20;;;29.60;61.80;;;;;;5072309;28;20180;-75
2022/10/26 05:56:21;;;;;;;1.83;0.50;;;29.60;62.00;;;;;;5071975;28;20278;-74
2022/10/26 05:58:49;;;;;;;0.70;0.30;;;29.60;66.90;;;;;;5081346;28;20179;-75
2022/10/26 06:01:34;;;;;;;0.80;0.30;;;29.70;70.00;;;;;;5104442;28;20245;-73
2022/10/26 06:04:10;;;;;;;1.73;0.60;;;29.70;69.30;;;;;;5097642;28;20215;-74
2022/10/26 06:06:43;;;;;;;0.30;0.23;;;29.40;71.70;;;;;;5076158;28;20183;-76
2022/10/26 06:09:14;;;;;;;0.43;0.33;;;29.10;72.10;;;;;;5066471;28;20236;-76
2022/10/26 06:11:42;;;;;;;0.20;0.17;;;29.30;75.10;;;;;;5090688;28;20171;-77
2022/10/26 06:14:11;;;;;;;0.63;0.20;;;29.50;75.50;;;;;;5054016;28;20268;-75
2022/10/26 06:17:00;;;;;;;1.60;0.20;;;29.70;80.30;;;;;;5071605;28;20183;-76
2022/10/26 06:20:03;;;;;;;0.73;0.53;;;29.40;76.00;;;;;;5035511;28;20199;-72
2022/10/26 06:23:27;;;;;;;2.90;0.23;;;28.90;74.50;;;;;;5056480;28;20219;-75
2022/10/26 06:26:27;;;;;;;3.30;0.30;;;28.50;72.80;;;;;;4990390;28;20272;-77
2022/10/26 06:29:12;;;;;;;0.50;0.37;;;28.10;78.70;;;;;;4990387;28;20558;-76
2022/10/26 06:31:40;;;;;;;1.17;0.30;;;27.80;74.30;;;;;;5061474;28;20641;-79
2022/10/26 06:34:11;;;;;;;0.73;0.60;;;28.00;82.80;;;;;;5071572;28;20558;-77
2022/10/26 06:36:41;;;;;;;1.17;0.30;;;28.30;79.10;;;;;;5071603;28;20180;-80
2022/10/26 06:39:12;;;;;;;1.07;0.30;;;28.30;77.90;;;;;;5083050;28;20788;-78
2022/10/26 06:41:40;;;;;;;1.30;0.30;;;28.00;76.00;;;;;;5093845;28;20186;-79
2022/10/26 06:44:25;;;;;;;1.97;0.30;;;27.70;80.50;;;;;;5091719;28;20210;-80
2022/10/26 06:47:18;;;;;;;0.30;0.30;;;27.70;83.60;;;;;;5091795;28;20179;-78
2022/10/26 06:50:10;;;;;;;0.57;0.30;;;27.90;85.10;;;;;;5055878;28;20184;-79
2022/10/26 06:52:48;;;;;;;0.50;0.50;;;27.90;88.10;;;;;;5053584;28;20680;-78
2022/10/26 06:55:16;;;;;;;5.07;0.40;;;27.70;88.70;;;;;;5071498;28;20547;-77
2022/10/26 06:57:47;;;;;;;3.10;0.40;;;27.60;90.60;;;;;;5071467;28;20167;-77
2022/10/26 07:00:24;;;;;;;1.80;0.40;;;27.30;91.50;;;;;;5091546;28;20182;-78
2022/10/26 07:02:51;;;;;;;6.03;0.60;;;27.10;93.40;;;;;;5091440;28;20230;-78
2022/10/26 07:05:23;;;;;;;0.70;0.53;;;26.90;94.70;;;;;;5073431;28;20733;-78
2022/10/26 07:07:50;;;;;;;0.73;0.60;;;26.80;96.80;;;;;;5074208;28;20229;-77
2022/10/26 07:10:18;;;;;;;3.27;0.30;;;26.70;98.10;;;;;;5071484;28;20218;-78
2022/10/26 07:12:46;;;;;;;1.17;0.50;;;26.70;99.90;;;;;;5070169;28;20255;-76
2022/10/26 07:15:14;;;;;;;3.20;1.27;;;26.60;99.90;;;;;;5071153;28;20180;-77
2022/10/26 07:17:47;;;;;;;0.87;0.40;;;26.50;99.90;;;;;;5071457;28;20686;-77
2022/10/26 07:20:16;;;;;;;1.37;0.43;;;26.50;99.90;;;;;;5071171;28;20267;-79
2022/10/26 07:22:44;;;;;;;0.50;0.50;;;26.40;99.90;;;;;;5071198;28;20751;-76
2022/10/26 07:25:12;;;;;;;0.60;0.30;;;26.40;99.90;;;;;;5071040;28;20179;-78
2022/10/26 07:27:40;;;;;;;0.60;0.40;;;26.30;99.90;;;;;;5071116;28;20172;-77
2022/10/26 07:30:08;;;;;;;0.30;0.30;;;26.30;99.90;;;;;;5071003;28;20323;-76
2022/10/26 07:32:36;;;;;;;1.10;0.63;;;26.20;99.90;;;;;;5053229;28;20647;-79
2022/10/26 07:35:04;;;;;;;1.70;0.60;;;26.20;99.90;;;;;;5084893;28;20191;-76
2022/10/26 07:37:32;;;;;;;2.43;0.60;;;26.10;99.90;;;;;;5094928;28;20172;-77
2022/10/26 07:40:00;;;;;;;1.83;0.83;;;26.10;99.90;;;;;;5074829;28;20187;-77
2022/10/26 07:42:28;;;;;;;3.17;0.50;;;26.00;99.90;;;;;;5074721;28;20661;-77
2022/10/26 07:44:56;;;;;;;0.93;0.50;;;26.00;99.90;;;;;;5074529;28;20269;-78
2022/10/26 07:47:28;;;;;;;5.50;0.60;;;26.00;99.90;;;;;;5074577;28;20172;-75
2022/10/26 07:49:56;;;;;;;2.50;0.60;;;25.90;99.90;;;;;;5093431;28;20206;-77
2022/10/26 07:52:24;;;;;;;0.93;0.47;;;25.90;99.90;;;;;;5094767;28;20177;-75
2022/10/26 07:54:52;;;;;;;0.87;0.50;;;25.80;99.90;;;;;;5094364;28;20642;-75
2022/10/26 07:57:20;;;;;;;0.80;0.50;;;25.70;99.90;;;;;;5094579;28;20175;-74
2022/10/26 07:59:47;;;;;;;0.57;0.40;;;25.80;99.90;;;;;;5076408;28;20552;-76
2022/10/26 08:02:15;;;;;;;1.70;0.40;;;25.70;99.90;;;;;;5077068;28;20417;-78
2022/10/26 08:04:42;;;;;;;0.80;0.47;;;25.70;99.90;;;;;;5094519;28;20175;-77
2022/10/26 08:07:10;;;;;;;2.40;0.30;;;25.70;99.90;;;;;;5092829;28;20164;-75
2022/10/26 08:09:37;;;;;;;0.70;0.40;;;25.70;99.90;;;;;;5094067;28;20175;-76
2022/10/26 08:12:05;;;;;;;1.47;0.40;;;25.70;99.90;;;;;;5094208;28;20202;-74
2022/10/26 08:14:32;;;;;;;0.60;0.40;;;25.70;99.90;;;;;;5091524;28;20199;-77
2022/10/26 08:17:00;;;;;;;0.30;0.30;;;25.60;99.90;;;;;;5074045;28;21009;-77
2022/10/26 08:19:27;;;;;;;1.50;0.30;;;25.50;99.90;;;;;;5092364;28;20179;-76
2022/10/26 08:21:54;;;;;;;0.47;0.47;;;25.50;99.90;;;;;;5093869;28;20270;-75
2022/10/26 08:24:22;;;;;;;0.93;0.40;;;25.40;99.90;;;;;;5094121;28;20214;-74
2022/10/26 08:26:49;;;;;;;0.77;0.40;;;25.40;99.90;;;;;;5094065;28;20195;-76
2022/10/26 08:29:16;;;;;;;0.90;0.57;;;25.30;99.90;;;;;;5076755;28;20191;-75
2022/10/26 08:31:44;;;;;;;1.17;0.80;;;25.30;99.90;;;;;;5088214;28;20236;-75
2022/10/26 08:34:11;;;;;;;1.20;0.90;;;25.20;99.90;;;;;;5075760;28;20182;-76
2022/10/26 08:36:40;;;;;;;1.10;0.83;;;25.20;99.90;;;;;;5093608;28;20558;-75
2022/10/26 08:39:07;;;;;;;1.17;0.70;;;25.20;99.90;;;;;;5077881;28;20641;-76
2022/10/26 08:41:43;;;;;;;1.33;1.00;;;25.10;99.90;;;;;;5073391;28;20232;-77
2022/10/26 08:44:28;;;;;;;0.70;0.63;;;25.10;99.90;;;;;;5055037;28;20676;-74
2022/10/26 08:47:12;;;;;;;1.17;0.47;;;25.00;99.90;;;;;;5073345;28;20634;-75
2022/10/26 08:49:52;;;;;;;0.40;0.40;;;25.00;99.90;;;;;;5090203;28;20287;-76
2022/10/26 08:52:25;;;;;;;1.17;0.50;;;25.00;99.90;;;;;;5093651;28;20174;-74
2022/10/26 08:54:55;;;;;;;0.77;0.40;;;24.90;99.90;;;;;;5093284;28;20182;-74
2022/10/26 08:57:40;;;;;;;0.97;0.60;;;24.90;99.90;;;;;;5096442;28;20232;-75
2022/10/26 09:00:14;;;;;;;2.83;0.50;;;24.90;99.90;;;;;;5060027;28;20184;-78
2022/10/26 09:02:41;;;;;;;0.70;0.40;;;24.90;99.90;;;;;;5097229;28;20234;-78
2022/10/26 09:05:20;;;;;;;1.27;0.40;;;24.80;99.90;;;;;;5086572;28;20217;-78
2022/10/26 09:08:05;;;;;;;3.23;0.40;;;24.80;99.90;;;;;;5084346;28;20637;-79
2022/10/26 09:10:57;;;;;;;0.67;0.50;;;24.70;99.90;;;;;;5082016;28;20190;-74
2022/10/26 09:13:42;;;;;;;2.33;0.37;;;24.60;99.90;;;;;;5075776;28;20184;-75
2022/10/26 09:16:46;;;;;;;1.20;0.57;;;24.60;99.90;;;;;;5078039;28;20180;-75
2022/10/26 09:19:44;;;;;;;0.73;0.50;;;24.50;99.90;;;;;;5045371;28;20661;-75
2022/10/26 09:22:40;;;;;;;0.97;0.50;;;24.50;99.90;;;;;;5074391;28;20180;-75
2022/10/26 09:25:26;;;;;;;0.50;0.50;;;24.50;99.90;;;;;;5074289;28;20193;-74
2022/10/26 09:28:00;;;;;;;1.90;0.40;;;24.40;99.90;;;;;;5074474;28;20203;-73
2022/10/26 09:30:29;;;;;;;1.00;0.57;;;24.40;99.90;;;;;;5074142;28;20664;-75
2022/10/26 09:33:14;;;;;;;0.63;0.53;;;24.40;99.90;;;;;;5073942;28;20224;-75
2022/10/26 09:36:07;;;;;;;2.40;0.60;;;24.30;99.90;;;;;;5056007;28;20314;-75
2022/10/26 09:39:01;;;;;;;1.13;0.40;;;24.20;99.90;;;;;;5074091;28;20292;-74
2022/10/26 09:41:41;;;;;;;0.43;0.37;;;24.20;99.90;;;;;;5063515;28;20210;-75
2022/10/26 09:44:38;;;;;;;0.80;0.50;;;24.10;99.90;;;;;;5074178;28;20267;-75
2022/10/26 09:47:28;;;;;;;1.10;0.60;;;24.10;99.90;;;;;;5073887;28;20645;-75
2022/10/26 09:50:12;;;;;;;0.63;0.57;;;24.00;99.90;;;;;;5073980;28;20180;-75
2022/10/26 09:52:39;;;;;;;1.07;0.50;;;23.90;99.90;;;;;;5073854;28;20267;-75
2022/10/26 09:55:09;;;;;;;0.77;0.53;;;23.80;99.90;;;;;;5073646;28;20179;-75
2022/10/26 09:57:39;;;;;;;0.67;0.60;;;23.70;99.90;;;;;;5055453;28;20659;-75
2022/10/26 10:00:11;;;;;;;0.50;0.50;;;23.60;99.90;;;;;;5073481;28;20204;-74
2022/10/26 10:02:45;;;;;;;0.60;0.50;;;23.50;99.90;;;;;;5073582;28;20758;-75
2022/10/26 10:05:32;;;;;;;1.90;0.53;;;23.40;99.90;;;;;;5055987;28;20194;-76
2022/10/26 10:08:31;;;;;;;1.93;0.40;;;23.30;99.90;;;;;;5073597;28;20625;-76
2022/10/26 10:11:14;;;;;;;0.90;0.50;;;23.20;99.90;;;;;;5029887;28;20250;-75
2022/10/26 10:13:46;;;;;;;0.73;0.57;;;23.10;99.90;;;;;;5073715;28;20197;-75
2022/10/26 10:16:23;;;;;;;2.87;0.43;;;23.10;99.90;;;;;;5073327;28;20629;-75
2022/10/26 10:18:55;;;;;;;2.20;0.63;;;23.00;99.90;;;;;;5073417;28;20170;-76
2022/10/26 10:21:33;;;;;;;0.73;0.50;;;22.90;99.90;;;;;;5081374;28;20514;-76
2022/10/26 10:24:01;;;;;;;0.30;0.30;;;22.90;99.90;;;;;;5073527;28;20208;-75
2022/10/26 10:26:29;;;;;;;2.67;0.67;;;22.90;99.90;;;;;;5055217;28;20186;-75
2022/10/26 10:28:58;;;;;;;0.87;0.40;;;22.80;99.90;;;;;;5073410;28;20182;-75
2022/10/26 10:31:31;;;;;;;0.50;0.50;;;22.80;99.90;;;;;;5072116;28;20179;-75
2022/10/26 10:33:59;;;;;;;0.57;0.50;;;22.70;99.90;;;;;;5091193;28;20189;-75
2022/10/26 10:36:29;;;;;;;0.93;0.50;;;22.60;99.90;;;;;;5075290;28;20174;-75
2022/10/26 10:38:56;;;;;;;5.00;0.50;;;22.50;99.90;;;;;;5093179;28;20320;-75
2022/10/26 10:41:35;;;;;;;0.60;0.60;;;22.50;99.90;;;;;;5093335;28;20182;-75
2022/10/26 10:44:28;;;;;;;1.07;0.50;;;22.40;99.90;;;;;;5092593;28;20207;-75
2022/10/26 10:47:35;;;;;;;0.50;0.50;;;22.30;99.90;;;;;;5093318;28;20185;-75
2022/10/26 10:50:19;;;;;;;2.40;0.47;;;22.20;99.90;;;;;;5093586;28;20263;-75
2022/10/26 10:52:47;;;;;;;1.43;0.50;;;22.10;99.90;;;;;;5093583;28;20254;-75
2022/10/26 10:55:15;;;;;;;4.10;0.80;;;22.00;99.90;;;;;;5075340;28;20550;-75
2022/10/26 10:58:18;;;;;;;0.60;0.47;;;21.90;99.90;;;;;;5093520;28;20175;-75
2022/10/26 11:00:49;;;;;;;0.63;0.50;;;21.80;99.90;;;;;;5093517;28;20631;-75
2022/10/26 11:03:28;;;;;;;0.60;0.60;;;21.70;99.90;;;;;;5095725;28;20717;-74
2022/10/26 11:06:16;;;;;;;2.00;0.57;;;21.60;99.90;;;;;;5107946;28;20167;-75
2022/10/26 11:08:53;;;;;;;3.20;0.67;;;21.50;99.90;;;;;;5107971;28;20597;-74
2022/10/26 11:11:27;;;;;;;2.70;0.53;;;21.40;99.90;;;;;;5098241;28;20689;-75
2022/10/26 11:14:37;;;;;;;1.17;0.70;;;21.30;99.90;;;;;;5097687;28;20183;-74
2022/10/26 11:17:19;;;;;;;4.20;0.80;;;21.20;99.90;;;;;;5049700;28;20278;-75
2022/10/26 11:19:55;;;;;;;3.27;0.87;;;21.00;99.90;;;;;;5097251;28;20175;-74
2022/10/26 11:22:30;;;;;;;1.27;0.70;;;20.90;99.90;;;;;;5097260;28;20163;-75
2022/10/26 11:25:11;;;;;;;0.87;0.60;;;20.80;99.90;;;;;;5078655;28;20241;-74
2022/10/26 11:27:42;;;;;;;4.33;0.73;;;20.70;99.90;;;;;;5097260;28;20181;-74
2022/10/26 11:30:20;;;;;;;0.67;0.60;;;20.70;99.90;;;;;;5096872;28;20262;-75
2022/10/26 11:32:56;;;;;;;0.63;0.50;;;20.60;99.90;;;;;;5096976;28;20532;-74
2022/10/26 11:35:30;;;;;;;2.73;0.73;;;20.50;99.90;;;;;;5096551;28;20169;-75
2022/10/26 11:38:21;;;;;;;2.23;0.63;;;20.40;99.90;;;;;;5096788;28;20167;-74
2022/10/26 11:41:26;;;;;;;0.90;0.50;;;20.40;99.90;;;;;;5078497;28;20266;-75
2022/10/26 11:44:04;;;;;;;1.70;0.70;;;20.30;99.90;;;;;;5041059;28;20228;-74
2022/10/26 11:46:54;;;;;;;4.27;0.70;;;20.20;99.90;;;;;;5096557;28;20171;-75
2022/10/26 11:49:46;;;;;;;2.00;0.77;;;20.20;99.90;;;;;;5078112;28;20183;-74
2022/10/26 11:52:24;;;;;;;4.80;0.63;;;20.10;99.90;;;;;;5096845;28;20635;-75
2022/10/26 11:54:59;;;;;;;1.90;0.63;;;20.00;99.90;;;;;;5096524;28;20645;-75
2022/10/26 11:57:29;;;;;;;1.77;1.00;;;19.90;99.90;;;;;;5096251;28;20179;-75
2022/10/26 12:00:02;;;;;;;0.80;0.70;;;19.90;99.90;;;;;;5096194;28;20183;-74
2022/10/26 12:02:31;;;;;;;2.67;0.93;;;19.80;99.90;;;;;;5074644;28;20229;-74
2022/10/26 12:05:34;;;;;;;1.20;0.60;;;19.70;99.90;;;;;;5076045;28;20171;-74
2022/10/26 12:08:24;;;;;;;1.67;0.83;;;19.70;99.90;;;;;;5045807;28;20191;-74
2022/10/26 12:11:20;;;;;;;2.00;0.87;;;19.70;99.90;;;;;;5075795;28;20179;-74
2022/10/26 12:14:01;;;;;;;2.77;0.87;;;19.60;99.90;;;;;;5075834;28;20693;-74
2022/10/26 12:16:52;;;;;;;0.70;0.70;;;19.60;99.90;;;;;;5075698;28;20186;-74
2022/10/26 12:19:42;;;;;;;2.83;0.87;;;19.50;99.90;;;;;;5075759;28;20580;-74
2022/10/26 12:22:13;;;;;;;1.17;0.83;;;19.50;99.90;;;;;;5065090;28;20211;-74
2022/10/26 12:25:05;;;;;;;1.10;0.80;;;19.50;99.90;;;;;;5075631;28;20214;-74
2022/10/26 12:27:51;;;;;;;3.60;0.80;;;19.50;99.90;;;;;;5060790;28;20191;-74
2022/10/26 12:30:18;;;;;;;3.27;0.90;;;19.50;99.90;;;;;;5055399;28;20190;-74
2022/10/26 12:32:48;;;;;;;4.70;1.03;;;19.40;99.90;;;;;;5054007;28;20188;-74
2022/10/26 12:35:40;;;;;;;3.20;1.17;;;19.40;99.90;;;;;;5055162;28;20646;-74
2022/10/26 12:38:25;;;;;;;2.23;1.10;;;19.40;99.90;;;;;;5055458;28;20273;-74
2022/10/26 12:41:18;;;;;;;1.03;0.77;;;19.40;99.90;;;;;;5055514;28;20255;-74
2022/10/26 12:43:45;;;;;;;1.40;0.70;;;19.40;99.90;;;;;;5074987;28;20207;-73
2022/10/26 12:46:13;;;;;;;2.50;0.80;;;19.30;99.90;;;;;;5071262;28;20178;-74
2022/10/26 12:48:47;;;;;;;1.37;0.90;;;19.30;99.90;;;;;;5055068;28;20662;-76
2022/10/26 12:51:26;;;;;;;0.77;0.77;;;19.30;99.90;;;;;;5055727;28;20169;-73
2022/10/26 12:54:18;;;;;;;2.30;0.90;;;19.30;99.90;;;;;;5053654;28;20232;-75
2022/10/26 12:57:28;;;;;;;2.90;0.83;;;19.30;99.90;;;;;;5062388;28;20172;-74
2022/10/26 13:00:04;;;;;;;3.43;1.00;;;19.30;99.90;;;;;;5064536;28;20659;-73
2022/10/26 13:02:47;;;;;;;2.50;0.73;;;19.20;99.90;;;;;;5089327;28;20286;-73
2022/10/26 13:06:09;;;;;;;1.47;0.83;;;19.10;99.90;;;;;;5064344;28;20256;-74
2022/10/26 13:08:45;;;;;;;4.43;1.17;;;19.10;99.90;;;;;;5017746;28;20198;-74
2022/10/26 13:11:28;;;;;;;3.20;0.97;;;19.00;99.90;;;;;;5075014;28;20628;-74
2022/10/26 13:14:06;;;;;;;4.23;1.00;;;18.90;99.90;;;;;;5074551;28;20273;-74
2022/10/26 13:16:34;;;;;;;2.23;0.93;;;18.90;99.90;;;;;;5080135;28;20167;-74
2022/10/26 13:19:02;;;;;;;1.00;0.90;;;18.90;99.90;;;;;;5094778;28;20181;-74
2022/10/26 13:21:30;;;;;;;2.87;0.90;;;18.80;99.90;;;;;;5094618;28;20636;-74
2022/10/26 13:24:07;;;;;;;1.40;1.10;;;18.80;99.90;;;;;;5094424;28;20213;-74
2022/10/26 13:27:16;;;;;;;1.70;1.00;;;18.80;99.90;;;;;;5088399;28;20184;-74
2022/10/26 13:30:35;;;;;;;1.60;0.90;;;18.80;99.90;;;;;;5045442;28;20217;-74